Time;durP1;ratioP1;P1;durP2;ratioP2;P2;SDS_P1;SDS_P2;PMS_P1;PMS_P2;Temp;Humidity;BMP_temperature;BMP_pressure;BME280_temperature;BME280_humidity;BME280_pressure;Samples;Min_cycle;Max_cycle;Signal;HPM_P1;HPM_P2
2023/08/12 00:01:51;;;;;;;17.95;3.50;;;17.60;99.90;;;;;;4993749;28;20035;-78
2023/08/12 00:04:17;;;;;;;15.18;3.03;;;17.60;99.90;;;;;;4993260;28;20129;-78
2023/08/12 00:06:43;;;;;;;21.05;4.10;;;17.60;99.90;;;;;;5008649;28;20117;-78
2023/08/12 00:09:14;;;;;;;18.17;3.45;;;17.70;99.90;;;;;;5008776;28;20054;-79
2023/08/12 00:11:40;;;;;;;20.05;3.70;;;17.60;99.90;;;;;;4993000;28;20034;-78
2023/08/12 00:14:06;;;;;;;18.38;4.43;;;17.60;99.90;;;;;;4993423;28;20034;-77
2023/08/12 00:16:32;;;;;;;17.63;3.42;;;17.60;99.90;;;;;;4993320;28;20093;-78
2023/08/12 00:18:58;;;;;;;21.10;3.97;;;17.60;99.90;;;;;;4993541;28;20419;-79
2023/08/12 00:21:25;;;;;;;18.20;3.17;;;17.60;99.90;;;;;;4993112;28;20033;-79
2023/08/12 00:23:51;;;;;;;17.73;3.60;;;17.60;99.90;;;;;;4993171;28;20026;-79
2023/08/12 00:26:16;;;;;;;17.58;4.00;;;17.70;99.90;;;;;;4993494;28;20041;-78
2023/08/12 00:28:42;;;;;;;17.17;3.28;;;17.70;99.90;;;;;;4993249;28;20018;-79
2023/08/12 00:31:08;;;;;;;16.98;3.80;;;17.60;99.90;;;;;;4993655;28;20475;-79
2023/08/12 00:33:34;;;;;;;19.77;4.10;;;17.70;99.90;;;;;;4992240;28;20403;-79
2023/08/12 00:36:00;;;;;;;12.70;3.28;;;17.60;99.90;;;;;;4993542;28;20106;-80
2023/08/12 00:38:25;;;;;;;14.77;4.25;;;17.60;99.90;;;;;;4992089;28;20061;-79
2023/08/12 00:40:51;;;;;;;18.15;3.38;;;17.60;99.90;;;;;;4993695;28;20037;-78
2023/08/12 00:43:17;;;;;;;18.23;3.03;;;17.60;99.90;;;;;;4992937;28;20030;-78
2023/08/12 00:45:43;;;;;;;19.35;3.55;;;17.60;99.90;;;;;;4992316;28;20034;-79
2023/08/12 00:48:10;;;;;;;14.35;3.20;;;17.60;99.90;;;;;;4992578;28;20032;-80
2023/08/12 00:50:37;;;;;;;16.17;3.60;;;17.60;99.90;;;;;;4992226;28;20041;-78
2023/08/12 00:53:05;;;;;;;21.75;3.83;;;17.60;99.90;;;;;;4992686;28;20026;-78
2023/08/12 00:55:32;;;;;;;16.02;3.92;;;17.60;99.90;;;;;;4992441;28;20026;-78
2023/08/12 00:57:58;;;;;;;19.33;3.20;;;17.60;99.90;;;;;;4992015;28;20468;-78
2023/08/12 01:00:24;;;;;;;18.55;3.47;;;17.50;99.90;;;;;;4992135;28;20053;-78
2023/08/12 01:02:51;;;;;;;15.88;3.67;;;17.50;99.90;;;;;;4991386;28;20503;-78
2023/08/12 01:05:17;;;;;;;16.60;3.15;;;17.60;99.90;;;;;;4991393;28;20058;-78
2023/08/12 01:07:45;;;;;;;22.27;3.28;;;17.50;99.90;;;;;;4991704;28;20486;-77
2023/08/12 01:10:14;;;;;;;16.75;3.15;;;17.60;99.90;;;;;;4991271;28;20353;-78
2023/08/12 01:12:49;;;;;;;15.55;2.88;;;17.60;99.90;;;;;;4990381;28;20234;-78
2023/08/12 01:15:21;;;;;;;16.08;3.80;;;17.60;99.90;;;;;;4992929;28;20109;-78
2023/08/12 01:17:51;;;;;;;23.02;3.75;;;17.60;99.90;;;;;;4992021;28;20038;-78
2023/08/12 01:20:24;;;;;;;21.83;3.78;;;17.60;99.90;;;;;;4992457;28;20042;-78
2023/08/12 01:22:57;;;;;;;15.60;3.42;;;17.60;99.90;;;;;;4992582;28;20022;-78
2023/08/12 01:25:24;;;;;;;;;;;17.60;99.90;;;;;;4992266;28;20117;-78
2023/08/12 01:27:49;;;;;;;15.38;3.15;;;17.50;99.90;;;;;;4992460;28;20012;-78
2023/08/12 01:30:16;;;;;;;21.27;3.53;;;17.60;99.90;;;;;;4992328;28;20084;-78
2023/08/12 01:33:09;;;;;;;19.90;3.38;;;17.50;99.90;;;;;;4991790;28;20168;-78
2023/08/12 01:35:40;;;;;;;;;;;17.50;99.90;;;;;;4964467;28;20165;-78
2023/08/12 01:38:06;;;;;;;19.48;3.60;;;17.60;99.90;;;;;;4992029;28;20371;-78
2023/08/12 01:40:33;;;;;;;18.50;3.10;;;17.50;99.90;;;;;;4991723;28;20027;-78
2023/08/12 01:42:59;;;;;;;16.92;3.70;;;17.60;99.90;;;;;;4992060;28;20499;-79
2023/08/12 01:45:25;;;;;;;14.82;3.50;;;17.60;99.90;;;;;;4991647;28;20044;-79
2023/08/12 01:47:51;;;;;;;16.10;3.08;;;17.60;99.90;;;;;;4991774;28;20164;-79
2023/08/12 01:50:17;;;;;;;21.15;4.15;;;17.60;99.90;;;;;;4991117;28;20054;-79
2023/08/12 01:52:43;;;;;;;12.27;2.97;;;17.50;99.90;;;;;;4991342;28;20034;-79
2023/08/12 01:55:08;;;;;;;12.82;3.35;;;17.50;99.90;;;;;;5006455;28;20422;-79
2023/08/12 01:57:34;;;;;;;13.20;3.08;;;17.50;99.90;;;;;;4990836;28;20026;-76
2023/08/12 02:00:02;;;;;;;17.20;2.88;;;17.50;99.90;;;;;;4990953;28;20128;-77
2023/08/12 02:02:27;;;;;;;17.95;3.15;;;17.40;99.90;;;;;;4991645;28;20126;-78
2023/08/12 02:04:53;;;;;;;15.27;3.13;;;17.50;99.90;;;;;;4991634;28;20073;-78
2023/08/12 02:07:19;;;;;;;13.55;2.85;;;17.50;99.90;;;;;;4991557;28;20054;-77
2023/08/12 02:09:44;;;;;;;11.60;2.55;;;17.50;99.90;;;;;;4990577;28;20559;-78
2023/08/12 02:12:10;;;;;;;9.65;2.40;;;17.50;99.90;;;;;;4991137;28;20114;-77
2023/08/12 02:14:36;;;;;;;13.18;2.38;;;17.50;99.90;;;;;;4990698;28;20488;-77
2023/08/12 02:17:05;;;;;;;17.00;3.65;;;17.50;99.90;;;;;;4991154;28;20117;-79
2023/08/12 02:19:32;;;;;;;8.85;2.28;;;17.50;99.90;;;;;;4990426;28;20073;-79
2023/08/12 02:21:58;;;;;;;13.40;2.08;;;17.50;99.90;;;;;;4990946;28;20041;-78
2023/08/12 02:24:24;;;;;;;12.18;2.35;;;17.50;99.90;;;;;;4991070;28;20102;-77
2023/08/12 02:26:50;;;;;;;13.40;2.38;;;17.50;99.90;;;;;;4991580;28;20121;-77
2023/08/12 02:29:16;;;;;;;9.50;1.88;;;17.50;99.90;;;;;;4992115;28;20089;-78
2023/08/12 02:31:41;;;;;;;9.38;1.85;;;17.50;99.90;;;;;;4991036;28;20026;-77
2023/08/12 02:34:07;;;;;;;15.63;1.85;;;17.50;99.90;;;;;;4991941;28;20067;-77
2023/08/12 02:36:33;;;;;;;9.68;1.92;;;17.40;99.90;;;;;;4991555;28;20076;-78
2023/08/12 02:38:59;;;;;;;10.32;2.58;;;17.40;99.90;;;;;;4991891;28;20073;-77
2023/08/12 02:41:24;;;;;;;9.77;2.03;;;17.40;99.90;;;;;;4991327;28;20022;-78
2023/08/12 02:43:50;;;;;;;9.10;1.92;;;17.50;99.90;;;;;;4990712;28;20023;-77
2023/08/12 02:46:17;;;;;;;7.93;1.77;;;17.40;99.90;;;;;;4991020;28;20474;-77
2023/08/12 02:48:43;;;;;;;9.18;2.03;;;17.50;99.90;;;;;;4990429;28;20567;-77
2023/08/12 02:51:09;;;;;;;5.82;1.90;;;17.40;99.90;;;;;;4973145;28;20109;-78
2023/08/12 02:53:35;;;;;;;11.13;2.13;;;17.50;99.90;;;;;;4971448;28;20027;-77
2023/08/12 02:56:01;;;;;;;8.85;2.20;;;17.50;99.90;;;;;;4971329;28;20113;-76
2023/08/12 02:58:26;;;;;;;8.98;1.90;;;17.40;99.90;;;;;;4971205;28;20098;-77
2023/08/12 03:00:54;;;;;;;8.70;1.92;;;17.40;99.90;;;;;;4970925;28;20106;-77
2023/08/12 03:03:21;;;;;;;8.50;1.90;;;17.40;99.90;;;;;;4974159;28;20023;-77
2023/08/12 03:05:47;;;;;;;7.70;1.58;;;17.40;99.90;;;;;;4991947;28;20031;-77
2023/08/12 03:08:13;;;;;;;12.65;1.90;;;17.40;99.90;;;;;;4994895;28;20038;-77
2023/08/12 03:10:39;;;;;;;8.90;1.88;;;17.40;99.90;;;;;;4994166;28;20089;-79
2023/08/12 03:13:05;;;;;;;7.28;1.75;;;17.40;99.90;;;;;;5009795;28;20026;-77
2023/08/12 03:15:30;;;;;;;6.65;1.85;;;17.40;99.90;;;;;;4994495;28;20026;-78
2023/08/12 03:17:57;;;;;;;4.80;1.65;;;17.40;99.90;;;;;;4994549;28;20431;-77
2023/08/12 03:20:22;;;;;;;9.63;1.95;;;17.40;99.90;;;;;;4994636;28;20018;-78
2023/08/12 03:22:48;;;;;;;10.10;2.20;;;17.40;99.90;;;;;;4993913;28;20205;-78
2023/08/12 03:25:17;;;;;;;9.35;1.65;;;17.40;99.90;;;;;;4994499;28;20030;-77
2023/08/12 03:27:42;;;;;;;10.95;2.15;;;17.40;99.90;;;;;;4993760;28;20458;-78
2023/08/12 03:30:09;;;;;;;8.40;1.55;;;17.40;99.90;;;;;;4994810;28;20026;-77
2023/08/12 03:32:35;;;;;;;6.85;1.80;;;17.40;99.90;;;;;;4994618;28;20038;-78
2023/08/12 03:35:01;;;;;;;6.75;1.85;;;17.30;99.90;;;;;;4995412;28;20035;-79
2023/08/12 03:37:27;;;;;;;8.27;1.60;;;17.40;99.90;;;;;;4994903;28;20046;-79
2023/08/12 03:39:52;;;;;;;8.20;2.33;;;17.40;99.90;;;;;;4994484;28;20026;-78
2023/08/12 03:42:18;;;;;;;8.93;1.80;;;17.30;99.90;;;;;;4994730;28;20392;-79
2023/08/12 03:44:44;;;;;;;8.10;1.90;;;17.30;99.90;;;;;;4993942;28;20037;-79
2023/08/12 03:47:10;;;;;;;11.15;2.40;;;17.30;99.90;;;;;;4994191;28;20472;-78
2023/08/12 03:49:37;;;;;;;8.27;1.55;;;17.20;99.90;;;;;;4993636;28;20100;-79
2023/08/12 03:52:03;;;;;;;9.55;2.05;;;17.20;99.90;;;;;;4993883;28;20532;-78
2023/08/12 03:54:28;;;;;;;12.07;2.13;;;17.10;99.90;;;;;;4994326;28;20053;-78
2023/08/12 03:56:54;;;;;;;10.85;1.85;;;17.20;99.90;;;;;;4993790;28;20040;-78
2023/08/12 03:59:20;;;;;;;6.70;2.28;;;17.10;99.90;;;;;;4993852;28;20472;-78
2023/08/12 04:01:46;;;;;;;5.85;1.73;;;17.10;99.90;;;;;;4992927;28;20487;-78
2023/08/12 04:04:11;;;;;;;9.50;1.70;;;17.10;99.90;;;;;;4993850;28;20448;-78
2023/08/12 04:06:37;;;;;;;9.00;1.75;;;17.10;99.90;;;;;;4993813;28;20022;-78
2023/08/12 04:09:04;;;;;;;11.27;2.33;;;17.10;99.90;;;;;;5008889;28;20038;-77
2023/08/12 04:11:29;;;;;;;8.70;1.92;;;17.20;99.90;;;;;;4993756;28;20026;-78
2023/08/12 04:13:55;;;;;;;7.30;1.90;;;17.10;99.90;;;;;;4992925;28;20049;-78
2023/08/12 04:16:21;;;;;;;8.32;2.00;;;17.20;99.90;;;;;;5008529;28;20076;-78
2023/08/12 04:18:48;;;;;;;9.40;2.05;;;17.20;99.90;;;;;;4992914;28;20432;-77
2023/08/12 04:21:14;;;;;;;5.50;1.83;;;17.20;99.90;;;;;;4993253;28;20022;-77
2023/08/12 04:23:39;;;;;;;8.02;2.08;;;17.20;99.90;;;;;;4992998;28;20035;-76
2023/08/12 04:26:05;;;;;;;8.63;2.67;;;17.20;99.90;;;;;;4993030;28;20061;-77
2023/08/12 04:28:31;;;;;;;6.35;1.52;;;17.20;99.90;;;;;;4993739;28;20034;-78
2023/08/12 04:30:56;;;;;;;5.80;1.55;;;17.30;99.90;;;;;;5007606;28;20037;-77
2023/08/12 04:33:23;;;;;;;7.88;2.20;;;17.30;99.90;;;;;;4993063;28;20049;-78
2023/08/12 04:35:49;;;;;;;7.93;1.92;;;17.20;99.90;;;;;;4993045;28;20050;-78
2023/08/12 04:38:15;;;;;;;8.80;1.80;;;17.20;99.90;;;;;;4993133;28;20129;-77
2023/08/12 04:40:41;;;;;;;6.00;1.75;;;17.30;99.90;;;;;;5007378;28;20033;-78
2023/08/12 04:43:11;;;;;;;7.88;2.08;;;17.30;99.90;;;;;;4993259;28;20089;-77
2023/08/12 04:45:38;;;;;;;6.45;1.85;;;17.30;99.90;;;;;;4992661;28;20030;-78
2023/08/12 04:48:04;;;;;;;10.02;1.88;;;17.30;99.90;;;;;;4993294;28;20092;-77
2023/08/12 04:50:31;;;;;;;5.70;1.55;;;17.30;99.90;;;;;;4993096;28;20057;-77
2023/08/12 04:52:57;;;;;;;8.18;2.15;;;17.30;99.90;;;;;;4992569;28;20778;-77
2023/08/12 04:55:24;;;;;;;8.18;1.75;;;17.40;99.90;;;;;;4992737;28;20041;-78
2023/08/12 04:57:50;;;;;;;5.78;1.83;;;17.30;99.90;;;;;;4992143;28;20030;-77
2023/08/12 05:00:17;;;;;;;9.57;1.90;;;17.30;99.90;;;;;;4992866;28;20034;-77
2023/08/12 05:02:43;;;;;;;5.93;2.08;;;17.30;99.90;;;;;;4991782;28;20072;-78
2023/08/12 05:05:08;;;;;;;6.93;1.73;;;17.30;99.90;;;;;;4992705;28;20451;-78
2023/08/12 05:07:34;;;;;;;6.55;1.83;;;17.30;99.90;;;;;;4992406;28;20031;-78
2023/08/12 05:10:01;;;;;;;5.60;1.63;;;17.30;99.90;;;;;;4992153;28;20113;-77
2023/08/12 05:12:26;;;;;;;7.32;1.77;;;17.30;99.90;;;;;;4991271;28;20034;-78
2023/08/12 05:14:52;;;;;;;4.50;1.60;;;17.40;99.90;;;;;;4992091;28;20424;-77
2023/08/12 05:17:18;;;;;;;8.73;2.30;;;17.40;99.90;;;;;;4992154;28;20042;-77
2023/08/12 05:19:43;;;;;;;9.43;2.03;;;17.40;99.90;;;;;;4991672;28;20430;-78
2023/08/12 05:22:09;;;;;;;7.70;1.63;;;17.30;99.90;;;;;;4992638;28;20052;-78
2023/08/12 05:24:35;;;;;;;5.70;1.63;;;17.30;99.90;;;;;;4991600;28;20400;-78
2023/08/12 05:27:00;;;;;;;7.75;1.85;;;17.30;99.90;;;;;;4991878;28;20030;-78
2023/08/12 05:29:26;;;;;;;9.18;1.85;;;17.30;99.90;;;;;;4992769;28;20030;-77
2023/08/12 05:31:52;;;;;;;8.77;2.00;;;17.30;99.90;;;;;;4991595;28;20114;-77
2023/08/12 05:34:17;;;;;;;4.55;1.45;;;17.30;99.90;;;;;;4992292;28;20026;-77
2023/08/12 05:36:43;;;;;;;6.18;1.40;;;17.40;99.90;;;;;;4991504;28;20096;-77
2023/08/12 05:39:09;;;;;;;7.55;2.45;;;17.30;99.90;;;;;;4992373;28;20387;-78
2023/08/12 05:41:34;;;;;;;6.68;1.70;;;17.30;99.90;;;;;;4991837;28;20029;-78
2023/08/12 05:44:00;;;;;;;7.35;1.50;;;17.30;99.90;;;;;;4990912;28;20030;-78
2023/08/12 05:46:26;;;;;;;5.72;1.73;;;17.40;99.90;;;;;;4991890;28;20062;-77
2023/08/12 05:48:51;;;;;;;6.20;1.70;;;17.40;99.90;;;;;;4991070;28;20030;-77
2023/08/12 05:51:17;;;;;;;6.78;1.48;;;17.30;99.90;;;;;;4991544;28;20493;-78
2023/08/12 05:53:43;;;;;;;11.23;2.28;;;17.40;99.90;;;;;;4990934;28;20122;-77
2023/08/12 05:56:08;;;;;;;6.65;1.88;;;17.40;99.90;;;;;;5006419;28;20452;-78
2023/08/12 05:58:34;;;;;;;7.05;1.50;;;17.40;99.90;;;;;;4991161;28;20038;-77
2023/08/12 06:01:00;;;;;;;5.90;1.70;;;17.40;99.90;;;;;;4990877;28;20022;-77
2023/08/12 06:03:26;;;;;;;6.07;1.80;;;17.40;99.90;;;;;;5005827;28;20491;-77
2023/08/12 06:05:51;;;;;;;7.25;2.20;;;17.40;99.90;;;;;;4991000;28;20026;-77
2023/08/12 06:08:17;;;;;;;5.18;1.48;;;17.40;99.90;;;;;;4991318;28;20041;-78
2023/08/12 06:10:43;;;;;;;7.13;1.70;;;17.40;99.90;;;;;;4990573;28;20464;-78
2023/08/12 06:13:09;;;;;;;6.40;1.67;;;17.40;99.90;;;;;;4991235;28;20196;-77
2023/08/12 06:15:34;;;;;;;5.75;1.77;;;17.40;99.90;;;;;;4990825;28;20251;-78
2023/08/12 06:18:01;;;;;;;7.93;1.65;;;17.50;99.90;;;;;;4990154;28;20030;-77
2023/08/12 06:20:27;;;;;;;9.52;2.08;;;17.50;99.90;;;;;;4991277;28;20030;-79
2023/08/12 06:22:53;;;;;;;6.28;1.42;;;17.50;99.90;;;;;;4990640;28;20077;-79
2023/08/12 06:25:20;;;;;;;8.45;1.70;;;17.60;99.90;;;;;;4991319;28;20073;-79
2023/08/12 06:27:46;;;;;;;5.82;1.58;;;17.50;99.90;;;;;;4989293;28;20073;-78
2023/08/12 06:30:12;;;;;;;4.93;1.40;;;17.50;99.90;;;;;;4991194;28;20147;-79
2023/08/12 06:32:38;;;;;;;7.15;1.60;;;17.60;99.90;;;;;;4991367;28;20046;-79
2023/08/12 06:35:05;;;;;;;8.10;1.75;;;17.60;99.90;;;;;;4990884;28;20456;-79
2023/08/12 06:37:30;;;;;;;9.10;1.52;;;17.60;99.90;;;;;;4990977;28;20081;-79
2023/08/12 06:39:56;;;;;;;7.20;1.50;;;17.60;99.90;;;;;;4991134;28;20046;-79
2023/08/12 06:42:22;;;;;;;8.68;2.00;;;17.70;99.90;;;;;;4991738;28;20038;-79
2023/08/12 06:44:59;;;;;;;13.98;1.98;;;17.70;99.90;;;;;;4989512;28;20387;-78
2023/08/12 06:47:27;;;;;;;7.93;1.70;;;17.70;99.90;;;;;;4990976;28;20364;-79
2023/08/12 06:49:53;;;;;;;5.60;1.48;;;17.70;99.90;;;;;;4990282;28;20030;-79
2023/08/12 06:52:19;;;;;;;5.38;1.50;;;17.70;99.90;;;;;;4990907;28;20102;-79
2023/08/12 06:54:45;;;;;;;2.78;1.20;;;17.80;99.90;;;;;;4990498;28;20022;-79
2023/08/12 06:57:11;;;;;;;7.45;1.33;;;17.80;99.90;;;;;;4989521;28;20104;-79
2023/08/12 06:59:38;;;;;;;4.95;1.20;;;17.80;99.90;;;;;;4991107;28;20092;-79
2023/08/12 07:02:03;;;;;;;9.77;1.83;;;17.70;99.90;;;;;;4990567;28;20206;-79
2023/08/12 07:04:29;;;;;;;6.55;1.70;;;17.80;99.90;;;;;;4990793;28;20429;-79
2023/08/12 07:06:55;;;;;;;5.30;1.20;;;17.80;99.90;;;;;;4990764;28;20030;-79
2023/08/12 07:09:21;;;;;;;4.32;1.27;;;17.80;99.90;;;;;;4991752;28;20435;-79
2023/08/12 07:11:47;;;;;;;9.40;1.55;;;17.90;99.90;;;;;;4990892;28;20035;-79
2023/08/12 07:14:13;;;;;;;7.18;1.73;;;18.10;99.90;;;;;;4990748;28;20122;-80
2023/08/12 07:16:38;;;;;;;4.65;1.20;;;18.20;99.90;;;;;;4991427;28;20034;-80
2023/08/12 07:19:04;;;;;;;5.32;1.73;;;18.50;99.90;;;;;;4991067;28;20033;-80
2023/08/12 07:21:30;;;;;;;5.13;1.30;;;18.80;99.90;;;;;;4990578;28;20026;-79
2023/08/12 07:23:55;;;;;;;3.47;1.20;;;19.20;99.90;;;;;;4990155;28;20081;-79
2023/08/12 07:26:21;;;;;;;4.68;1.05;;;19.30;99.90;;;;;;4990607;28;20030;-80
2023/08/12 07:28:47;;;;;;;5.15;1.20;;;19.40;99.90;;;;;;4989727;28;20104;-79
2023/08/12 07:31:13;;;;;;;5.50;1.13;;;19.30;99.90;;;;;;4990415;28;20029;-80
2023/08/12 07:33:39;;;;;;;5.35;1.20;;;19.30;99.90;;;;;;4990021;28;20027;-78
2023/08/12 07:36:05;;;;;;;5.55;1.65;;;19.40;99.90;;;;;;5004364;28;20026;-78
2023/08/12 07:38:31;;;;;;;5.95;1.38;;;19.30;99.90;;;;;;4989552;28;20502;-79
2023/08/12 07:40:57;;;;;;;2.22;0.70;;;19.30;99.90;;;;;;4989564;28;20117;-78
2023/08/12 07:43:23;;;;;;;3.13;1.00;;;19.20;99.90;;;;;;4990013;28;20026;-78
2023/08/12 07:45:53;;;;;;;2.67;0.90;;;19.10;99.90;;;;;;4989849;28;20033;-79
2023/08/12 07:48:22;;;;;;;2.50;0.63;;;19.10;99.90;;;;;;4992598;28;20050;-79
2023/08/12 07:50:56;;;;;;;3.03;0.80;;;18.90;99.90;;;;;;4992854;28;20053;-79
2023/08/12 07:53:22;;;;;;;4.47;0.90;;;18.90;99.90;;;;;;4993716;28;20495;-79
2023/08/12 07:55:47;;;;;;;2.22;0.70;;;19.00;99.90;;;;;;4993486;28;20023;-78
2023/08/12 07:58:13;;;;;;;4.40;0.65;;;19.10;99.90;;;;;;4993496;28;20062;-79
2023/08/12 08:00:39;;;;;;;2.15;0.68;;;19.30;99.90;;;;;;4993373;28;20435;-80
2023/08/12 08:03:05;;;;;;;2.03;0.63;;;19.30;99.90;;;;;;4992024;28;20030;-79
2023/08/12 08:05:30;;;;;;;1.92;0.57;;;19.20;99.90;;;;;;4992538;28;20061;-79
2023/08/12 08:07:56;;;;;;;2.17;0.85;;;19.40;99.90;;;;;;4993063;28;20057;-78
2023/08/12 08:10:22;;;;;;;3.08;0.98;;;19.50;99.90;;;;;;4991836;28;20413;-76
2023/08/12 08:12:48;;;;;;;1.83;0.60;;;19.50;99.90;;;;;;4991742;28;20031;-77
2023/08/12 08:15:14;;;;;;;2.85;0.80;;;19.30;99.90;;;;;;4990711;28;20030;-78
2023/08/12 08:17:39;;;;;;;4.72;1.02;;;19.10;99.90;;;;;;4992241;28;20491;-82
2023/08/12 08:20:06;;;;;;;2.80;0.95;;;18.80;99.90;;;;;;4992136;28;20026;-84
2023/08/12 08:22:32;;;;;;;2.42;0.85;;;18.60;99.90;;;;;;4993246;28;20034;-78
2023/08/12 08:24:58;;;;;;;2.42;0.90;;;18.30;99.90;;;;;;4992674;28;20122;-78
2023/08/12 08:27:24;;;;;;;3.28;0.95;;;18.10;99.90;;;;;;4991631;28;20379;-78
2023/08/12 08:29:49;;;;;;;6.88;1.15;;;17.90;99.90;;;;;;4992932;28;20027;-79
2023/08/12 08:32:16;;;;;;;2.90;0.98;;;18.00;99.90;;;;;;4992939;28;20022;-79
2023/08/12 08:34:42;;;;;;;3.55;1.13;;;17.90;99.90;;;;;;4992465;28;20035;-80
2023/08/12 08:37:08;;;;;;;2.22;0.98;;;17.90;99.90;;;;;;4991599;28;20034;-79
2023/08/12 08:39:34;;;;;;;4.18;1.13;;;17.80;99.90;;;;;;4992705;28;20053;-78
2023/08/12 08:42:00;;;;;;;5.07;1.08;;;17.80;99.90;;;;;;4992174;28;20448;-80
2023/08/12 08:44:32;;;;;;;3.80;0.90;;;17.80;99.90;;;;;;4994021;28;20054;-80
2023/08/12 08:47:03;;;;;;;5.43;1.10;;;17.90;99.90;;;;;;4993337;28;20149;-79
2023/08/12 08:49:31;;;;;;;2.95;0.75;;;18.00;99.90;;;;;;4993289;28;20026;-79
2023/08/12 08:51:59;;;;;;;2.63;1.00;;;18.10;99.90;;;;;;4992708;28;20022;-79
2023/08/12 08:54:25;;;;;;;4.95;1.27;;;18.20;99.90;;;;;;4990931;28;20080;-78
2023/08/12 08:56:51;;;;;;;3.70;1.05;;;18.30;99.90;;;;;;4992129;28;20081;-77
2023/08/12 08:59:17;;;;;;;2.75;0.90;;;18.50;99.90;;;;;;4991594;28;20042;-78
2023/08/12 09:01:46;;;;;;;1.45;1.00;;;18.60;99.90;;;;;;4992504;28;20034;-78
2023/08/12 09:04:15;;;;;;;1.73;0.80;;;18.80;99.90;;;;;;4992698;28;20023;-78
2023/08/12 09:06:42;;;;;;;3.28;0.90;;;19.10;99.90;;;;;;4992537;28;20054;-79
2023/08/12 09:09:14;;;;;;;2.20;0.90;;;19.10;99.90;;;;;;4991911;28;20042;-78
2023/08/12 09:11:44;;;;;;;2.17;0.80;;;19.10;99.90;;;;;;4992493;28;20062;-78
2023/08/12 09:14:10;;;;;;;1.10;0.40;;;19.30;99.90;;;;;;4992010;28;20037;-78
2023/08/12 09:16:36;;;;;;;2.03;0.77;;;19.30;99.90;;;;;;4992299;28;20026;-78
2023/08/12 09:19:03;;;;;;;1.65;0.70;;;19.20;99.90;;;;;;4991313;28;20034;-78
2023/08/12 09:21:29;;;;;;;1.73;0.98;;;19.20;99.90;;;;;;4992153;28;20034;-78
2023/08/12 09:23:55;;;;;;;3.05;1.23;;;18.90;99.90;;;;;;5006510;28;20044;-78
2023/08/12 09:26:21;;;;;;;3.63;1.52;;;18.80;99.90;;;;;;4991904;28;20068;-78
2023/08/12 09:28:48;;;;;;;1.27;0.80;;;18.80;99.90;;;;;;4992024;28;20041;-78
2023/08/12 09:31:25;;;;;;;2.17;0.70;;;18.70;99.90;;;;;;4992849;28;20019;-78
2023/08/12 09:33:51;;;;;;;3.25;0.60;;;18.70;99.90;;;;;;4992436;28;20041;-78
2023/08/12 09:36:17;;;;;;;1.48;0.60;;;18.80;99.90;;;;;;4993317;28;20026;-79
2023/08/12 09:38:44;;;;;;;1.52;0.70;;;19.00;99.90;;;;;;4992700;28;20061;-79
2023/08/12 09:41:10;;;;;;;3.20;0.75;;;19.10;99.90;;;;;;4992614;28;20053;-79
2023/08/12 09:43:43;;;;;;;1.75;0.73;;;19.30;99.90;;;;;;4993380;28;20027;-78
2023/08/12 09:46:16;;;;;;;2.13;0.70;;;19.40;99.90;;;;;;4993694;28;20658;-79
2023/08/12 09:48:41;;;;;;;;;;;19.50;99.90;;;;;;4993488;28;20022;-79
2023/08/12 09:51:08;;;;;;;2.20;0.98;;;19.50;99.90;;;;;;4992905;28;20462;-80
2023/08/12 09:53:34;;;;;;;1.52;0.75;;;19.50;99.90;;;;;;4994012;28;20026;-80
2023/08/12 09:56:10;;;;;;;1.42;0.70;;;19.50;99.90;;;;;;4992120;28;20256;-80
2023/08/12 09:58:37;;;;;;;1.48;0.85;;;19.60;99.90;;;;;;4993301;28;20093;-79
2023/08/12 10:01:07;;;;;;;3.42;0.80;;;19.80;99.90;;;;;;4992112;28;20077;-79
2023/08/12 10:03:35;;;;;;;5.07;0.90;;;20.00;99.90;;;;;;4992569;28;20027;-79
2023/08/12 10:06:04;;;;;;;2.63;0.90;;;20.20;99.90;;;;;;4991978;28;20503;-79
2023/08/12 10:08:29;;;;;;;5.03;1.00;;;20.30;99.90;;;;;;4992454;28;20034;-80
2023/08/12 10:10:55;;;;;;;3.05;1.08;;;20.30;99.90;;;;;;4991498;28;20022;-79
2023/08/12 10:13:22;;;;;;;2.65;1.10;;;20.30;99.90;;;;;;4992720;28;20092;-78
2023/08/12 10:15:49;;;;;;;2.13;0.80;;;20.30;99.90;;;;;;4992402;28;20102;-79
2023/08/12 10:18:16;;;;;;;2.63;1.05;;;20.20;99.90;;;;;;4991710;28;20060;-78
2023/08/12 10:20:44;;;;;;;8.02;1.20;;;20.10;99.90;;;;;;4991359;28;20033;-78
2023/08/12 10:23:15;;;;;;;3.08;1.08;;;20.10;99.90;;;;;;4990844;28;20364;-78
2023/08/12 10:25:42;;;;;;;3.35;0.98;;;20.00;99.90;;;;;;4991503;28;20037;-79
2023/08/12 10:28:08;;;;;;;2.13;0.70;;;19.90;99.90;;;;;;4991212;28;20034;-79
2023/08/12 10:30:35;;;;;;;3.40;1.00;;;19.80;99.90;;;;;;4991812;28;20500;-80
2023/08/12 10:33:01;;;;;;;2.70;0.80;;;19.70;99.90;;;;;;4990987;28;20026;-79
2023/08/12 10:35:44;;;;;;;2.05;0.90;;;19.60;99.90;;;;;;4991136;28;20380;-79
2023/08/12 10:38:13;;;;;;;3.40;0.90;;;19.40;99.90;;;;;;4991043;28;20054;-78
2023/08/12 10:40:38;;;;;;;3.95;0.90;;;19.40;99.90;;;;;;4989900;28;20368;-79
2023/08/12 10:43:04;;;;;;;2.03;1.08;;;19.40;99.90;;;;;;4990565;28;20037;-79
2023/08/12 10:45:52;;;;;;;3.03;1.00;;;19.40;99.90;;;;;;4991654;28;20050;-79
2023/08/12 10:48:23;;;;;;;5.30;1.17;;;19.50;99.90;;;;;;4990670;28;20031;-78
2023/08/12 10:50:53;;;;;;;1.83;0.50;;;19.40;99.90;;;;;;4991490;28;20186;-80
2023/08/12 10:53:25;;;;;;;3.65;0.95;;;19.30;99.90;;;;;;4975643;28;20034;-79
2023/08/12 10:55:55;;;;;;;3.05;1.08;;;19.20;99.90;;;;;;4991007;28;20090;-80
2023/08/12 10:58:34;;;;;;;4.18;1.30;;;19.10;99.90;;;;;;4990866;28;20193;-80
2023/08/12 11:01:00;;;;;;;4.97;1.17;;;19.10;99.90;;;;;;4991235;28;20030;-80
2023/08/12 11:03:32;;;;;;;4.90;1.02;;;19.10;99.90;;;;;;4990787;28;20184;-79
2023/08/12 11:06:00;;;;;;;1.98;0.90;;;19.10;99.90;;;;;;4973469;28;20121;-79
2023/08/12 11:08:29;;;;;;;5.68;0.98;;;19.10;99.90;;;;;;4990936;28;20049;-79
2023/08/12 11:10:57;;;;;;;3.47;0.88;;;19.10;99.90;;;;;;4991412;28;20048;-80
2023/08/12 11:13:22;;;;;;;3.90;1.20;;;19.10;99.90;;;;;;4991403;28;20133;-78
2023/08/12 11:15:49;;;;;;;4.47;1.20;;;19.10;99.90;;;;;;4990868;28;20532;-78
2023/08/12 11:18:21;;;;;;;2.08;1.23;;;19.00;99.90;;;;;;4990579;28;20218;-78
2023/08/12 11:20:48;;;;;;;3.45;1.13;;;19.00;99.90;;;;;;4990716;28;20046;-79
2023/08/12 11:23:14;;;;;;;5.40;1.50;;;19.00;99.90;;;;;;4992040;28;20026;-78
2023/08/12 11:25:42;;;;;;;4.07;1.08;;;19.10;99.90;;;;;;4994590;28;20031;-78
2023/08/12 11:28:08;;;;;;;2.25;1.02;;;19.20;99.90;;;;;;4992114;28;20066;-78
2023/08/12 11:30:34;;;;;;;3.80;0.82;;;19.30;99.90;;;;;;4994184;28;20034;-79
2023/08/12 11:33:01;;;;;;;3.42;0.88;;;19.40;99.90;;;;;;4993541;28;20023;-78
2023/08/12 11:35:27;;;;;;;2.53;0.77;;;19.60;99.90;;;;;;4993876;28;20062;-78
2023/08/12 11:37:56;;;;;;;2.45;1.10;;;19.90;99.90;;;;;;4993735;28;20054;-78
2023/08/12 11:40:22;;;;;;;3.13;1.00;;;19.90;99.90;;;;;;4993939;28;20106;-79
2023/08/12 11:42:50;;;;;;;4.18;1.05;;;19.90;99.90;;;;;;4993638;28;20139;-78
2023/08/12 11:45:23;;;;;;;3.75;1.02;;;19.90;99.90;;;;;;4993259;28;20841;-79
2023/08/12 11:47:52;;;;;;;4.05;0.98;;;19.90;99.90;;;;;;4993724;28;20105;-80
2023/08/12 11:50:20;;;;;;;3.45;1.20;;;19.80;99.90;;;;;;4992980;28;20054;-79
2023/08/12 11:52:46;;;;;;;3.13;1.23;;;19.80;99.90;;;;;;4992536;28;20037;-79
2023/08/12 11:55:12;;;;;;;3.15;1.00;;;19.90;99.90;;;;;;4993220;28;20391;-78
2023/08/12 11:57:42;;;;;;;3.45;0.98;;;19.90;99.90;;;;;;4993524;28;20030;-79
2023/08/12 12:00:13;;;;;;;4.28;0.98;;;20.10;99.90;;;;;;4991485;28;20030;-78
2023/08/12 12:02:42;;;;;;;4.68;0.93;;;20.30;99.90;;;;;;4993649;28;20105;-78
2023/08/12 12:05:12;;;;;;;2.30;0.90;;;20.50;99.90;;;;;;4993277;28;20452;-78
2023/08/12 12:07:40;;;;;;;2.22;0.80;;;20.60;99.90;;;;;;4993413;28;20088;-78
2023/08/12 12:10:07;;;;;;;3.13;0.73;;;20.80;99.90;;;;;;4993001;28;20383;-79
2023/08/12 12:12:36;;;;;;;2.10;0.70;;;21.10;99.90;;;;;;4993333;28;20121;-79
2023/08/12 12:15:03;;;;;;;4.13;1.20;;;21.20;99.90;;;;;;4993750;28;20563;-78
2023/08/12 12:17:29;;;;;;;1.70;0.68;;;21.30;99.90;;;;;;4993936;28;20046;-78
2023/08/12 12:19:57;;;;;;;2.35;0.75;;;21.10;99.90;;;;;;4993106;28;20038;-78
2023/08/12 12:22:31;;;;;;;3.22;0.90;;;20.90;99.90;;;;;;4993348;28;20085;-78
2023/08/12 12:25:09;;;;;;;3.17;1.00;;;20.50;99.90;;;;;;4993313;28;20459;-78
2023/08/12 12:27:36;;;;;;;4.60;0.90;;;20.20;99.90;;;;;;4992317;28;20034;-79
2023/08/12 12:30:02;;;;;;;4.03;1.10;;;20.30;99.90;;;;;;4993450;28;20073;-79
2023/08/12 12:32:27;;;;;;;2.50;0.70;;;20.30;99.90;;;;;;4993810;28;20411;-79
2023/08/12 12:34:54;;;;;;;2.75;0.75;;;20.50;99.90;;;;;;5008529;28;20041;-79
2023/08/12 12:37:20;;;;;;;5.30;1.15;;;20.70;99.90;;;;;;4993580;28;20194;-78
2023/08/12 12:39:46;;;;;;;4.93;0.93;;;20.90;99.90;;;;;;4991963;28;20125;-78
2023/08/12 12:42:12;;;;;;;4.00;0.93;;;21.00;99.90;;;;;;5007655;28;20113;-79
2023/08/12 12:44:38;;;;;;;2.47;0.75;;;21.10;99.90;;;;;;4993291;28;20058;-79